SDF weather

Louisville International Standiford Field
Louisville, Kentucky, United States

Public forecast

Using degrees Fahrenheit for public forecast. Weather courtesy of forecast.io.

Current aviation weather report (METAR) for Louisville International Standiford Field

Retrieved 2019/11/22 02:56 UTC (51 minutes ago):

KSDF 220256Z 22012KT 10SM OVC024 14/08 A3001 RMK AO2 SLP162 60000 T01390078 55002

Aviation forecast (TAF) for Louisville International Standiford Field

Retrieved 2019-11-22 00:42 UTC (3 hours ago):

TAF KSDF 212339Z 2200/2306 22011G18KT P6SM VCSH OVC022 FM220200 22009KT P6SM VCSH OVC014 FM220600 26007KT 4SM RA OVC008 FM221200 35008KT 5SM -RA OVC012 FM221600 36009KT 6SM -RA OVC030 FM221800 02007KT P6SM SCT030